Time;durP1;ratioP1;P1;durP2;ratioP2;P2;SDS_P1;SDS_P2;PMS_P1;PMS_P2;Temp;Humidity;BMP_temperature;BMP_pressure;BME280_temperature;BME280_humidity;BME280_pressure;Samples;Min_cycle;Max_cycle;Signal;HPM_P1;HPM_P2
2021/05/04 00:02:09;;;;;;;;;5.75;5.75;;;;;;;;3724418;38;21197;-63
2021/05/04 00:04:36;;;;;;;;;7.00;7.00;;;;;;;;3724195;37;21182;-64
2021/05/04 00:07:03;;;;;;;;;7.25;7.25;;;;;;;;3724782;38;21174;-64
2021/05/04 00:09:29;;;;;;;;;8.00;8.00;;;;;;;;3724714;38;21172;-63
2021/05/04 00:11:55;;;;;;;;;7.75;7.75;;;;;;;;3724947;37;18273;-62
2021/05/04 00:14:22;;;;;;;;;6.25;6.25;;;;;;;;3724537;37;18260;-62
2021/05/04 00:16:48;;;;;;;;;5.00;5.00;;;;;;;;3725052;37;21159;-64
2021/05/04 00:19:34;;;;;;;;;7.00;7.00;;;;;;;;3725254;38;21145;-65
2021/05/04 00:22:00;;;;;;;;;6.50;6.50;;;;;;;;3724789;37;21149;-64
2021/05/04 00:24:27;;;;;;;;;6.00;6.00;;;;;;;;3724732;37;21169;-63
2021/05/04 00:26:52;;;;;;;;;6.75;6.75;;;;;;;;3725010;37;18243;-64
2021/05/04 00:29:18;;;;;;;;;7.00;6.25;;;;;;;;3724979;37;21166;-64
2021/05/04 00:31:44;;;;;;;;;7.75;7.50;;;;;;;;3724900;38;18247;-65
2021/05/04 00:34:10;;;;;;;;;9.00;9.00;;;;;;;;3725095;37;18252;-63
2021/05/04 00:36:41;;;;;;;;;8.25;8.25;;;;;;;;3724894;37;18224;-65
2021/05/04 00:39:08;;;;;;;;;6.00;6.00;;;;;;;;3725005;38;18255;-65
2021/05/04 00:41:34;;;;;;;;;7.00;7.00;;;;;;;;3724915;38;21128;-65
2021/05/04 00:43:59;;;;;;;;;7.00;7.00;;;;;;;;3724791;37;21146;-64
2021/05/04 00:46:27;;;;;;;;;8.00;7.75;;;;;;;;3725018;37;18238;-63
2021/05/04 00:48:54;;;;;;;;;4.25;4.00;;;;;;;;3724884;37;21114;-65
2021/05/04 00:51:20;;;;;;;;;6.00;5.75;;;;;;;;3724349;37;21108;-64
2021/05/04 00:53:46;;;;;;;;;8.00;8.00;;;;;;;;3724844;37;21103;-65
2021/05/04 00:56:13;;;;;;;;;8.25;7.25;;;;;;;;3724811;37;21115;-64
2021/05/04 00:58:40;;;;;;;;;8.00;8.00;;;;;;;;3724425;37;18232;-64
2021/05/04 01:01:06;;;;;;;;;7.25;7.25;;;;;;;;3725249;37;21121;-63
2021/05/04 01:03:31;;;;;;;;;7.75;7.75;;;;;;;;3724847;37;21092;-63
2021/05/04 01:06:03;;;;;;;;;8.00;7.50;;;;;;;;3724983;37;18179;-63
2021/05/04 01:08:30;;;;;;;;;7.00;7.00;;;;;;;;3724416;37;18297;-64
2021/05/04 01:10:56;;;;;;;;;6.50;6.50;;;;;;;;3724852;38;20989;-62
2021/05/04 01:13:22;;;;;;;;;8.75;8.50;;;;;;;;3724902;38;21109;-63
2021/05/04 01:15:48;;;;;;;;;7.00;7.00;;;;;;;;3724335;37;21155;-63
2021/05/04 01:18:14;;;;;;;;;7.75;7.00;;;;;;;;3724714;37;21073;-63
2021/05/04 01:20:40;;;;;;;;;6.25;6.25;;;;;;;;3724835;38;18162;-63
2021/05/04 01:23:07;;;;;;;;;6.50;6.50;;;;;;;;3724807;38;18169;-63
2021/05/04 01:25:32;;;;;;;;;7.50;6.00;;;;;;;;3724779;37;20780;-63
2021/05/04 01:27:59;;;;;;;;;5.25;4.25;;;;;;;;3724977;37;21059;-63
2021/05/04 01:30:28;;;;;;;;;6.00;6.00;;;;;;;;3725057;37;18155;-62
2021/05/04 01:32:57;;;;;;;;;6.50;6.50;;;;;;;;3725007;38;21077;-64
2021/05/04 01:35:24;;;;;;;;;8.00;8.00;;;;;;;;3724875;37;21076;-64
2021/05/04 01:37:49;;;;;;;;;7.00;6.00;;;;;;;;3724996;37;21017;-64
2021/05/04 01:40:18;;;;;;;;;8.50;8.50;;;;;;;;3724838;37;21047;-64
2021/05/04 01:42:45;;;;;;;;;6.00;6.00;;;;;;;;3724839;38;21052;-64
2021/05/04 01:45:11;;;;;;;;;6.00;5.25;;;;;;;;3724885;37;21032;-64
2021/05/04 01:47:40;;;;;;;;;5.50;5.50;;;;;;;;3724403;38;21056;-64
2021/05/04 01:50:08;;;;;;;;;6.75;6.75;;;;;;;;3724915;38;21024;-65
2021/05/04 01:52:34;;;;;;;;;9.00;8.25;;;;;;;;3724563;37;21047;-64
2021/05/04 01:55:00;;;;;;;;;7.00;7.00;;;;;;;;3724929;37;21035;-64
2021/05/04 01:57:26;;;;;;;;;9.00;8.00;;;;;;;;3724767;38;18130;-65
2021/05/04 01:59:52;;;;;;;;;12.25;12.00;;;;;;;;3725086;37;21033;-64
2021/05/04 02:02:18;;;;;;;;;11.00;11.00;;;;;;;;3724837;37;21132;-65
2021/05/04 02:04:44;;;;;;;;;9.00;9.00;;;;;;;;3724511;37;18128;-64
2021/05/04 02:07:10;;;;;;;;;9.75;9.75;;;;;;;;3723968;37;21103;-63
2021/05/04 02:09:36;;;;;;;;;6.50;6.50;;;;;;;;3724850;38;18094;-65
2021/05/04 02:12:05;;;;;;;;;10.25;10.25;;;;;;;;3724997;37;21013;-64
2021/05/04 02:14:31;;;;;;;;;10.25;8.25;;;;;;;;3724857;37;20990;-64
2021/05/04 02:16:59;;;;;;;;;4.75;4.00;;;;;;;;3724768;37;21056;-64
2021/05/04 02:19:25;;;;;;;;;6.00;5.75;;;;;;;;3724962;38;21014;-63
2021/05/04 02:21:51;;;;;;;;;9.50;8.50;;;;;;;;3724994;37;18123;-63
2021/05/04 02:24:17;;;;;;;;;7.00;7.00;;;;;;;;3724828;37;18099;-65
2021/05/04 02:26:44;;;;;;;;;7.00;7.00;;;;;;;;3724908;37;18107;-62
2021/05/04 02:29:09;;;;;;;;;11.00;9.00;;;;;;;;3724533;38;20745;-65
2021/05/04 02:31:35;;;;;;;;;8.25;8.25;;;;;;;;3724960;37;18079;-65
2021/05/04 02:34:03;;;;;;;;;7.00;7.00;;;;;;;;3725002;37;18090;-62
2021/05/04 02:36:28;;;;;;;;;7.00;7.00;;;;;;;;3724905;38;18092;-65
2021/05/04 02:38:55;;;;;;;;;7.25;7.25;;;;;;;;3724892;38;20954;-64
2021/05/04 02:41:23;;;;;;;;;7.75;7.75;;;;;;;;3725120;38;18061;-64
2021/05/04 02:43:49;;;;;;;;;7.50;7.50;;;;;;;;3724843;37;20960;-64
2021/05/04 02:46:15;;;;;;;;;8.25;7.00;;;;;;;;3724948;37;18087;-64
2021/05/04 02:48:42;;;;;;;;;8.75;8.25;;;;;;;;3724498;38;18058;-64
2021/05/04 02:51:09;;;;;;;;;8.00;8.00;;;;;;;;3725070;37;18056;-66
2021/05/04 02:53:36;;;;;;;;;7.50;7.50;;;;;;;;3724972;37;20905;-63
2021/05/04 02:56:03;;;;;;;;;7.75;7.00;;;;;;;;3724808;38;20952;-65
2021/05/04 02:58:35;;;;;;;;;9.25;9.25;;;;;;;;3724842;38;20946;-64
2021/05/04 03:01:01;;;;;;;;;10.00;8.50;;;;;;;;3725027;37;20965;-63
2021/05/04 03:03:27;;;;;;;;;7.75;7.75;;;;;;;;3724895;38;21062;-65
2021/05/04 03:05:52;;;;;;;;;7.25;7.25;;;;;;;;3725063;37;18060;-63
2021/05/04 03:08:18;;;;;;;;;8.25;8.25;;;;;;;;3725002;38;18036;-64
2021/05/04 03:10:44;;;;;;;;;7.75;7.75;;;;;;;;3724905;38;18027;-65
2021/05/04 03:13:09;;;;;;;;;7.50;7.50;;;;;;;;3724603;38;18044;-63
2021/05/04 03:15:35;;;;;;;;;9.25;9.25;;;;;;;;3724752;38;18027;-65
2021/05/04 03:18:02;;;;;;;;;9.00;7.00;;;;;;;;3724939;38;18001;-65
2021/05/04 03:20:28;;;;;;;;;9.00;9.00;;;;;;;;3724489;38;18077;-64
2021/05/04 03:22:54;;;;;;;;;7.75;7.75;;;;;;;;3724701;38;20926;-63
2021/05/04 03:25:20;;;;;;;;;6.00;6.00;;;;;;;;3724945;38;20934;-62
2021/05/04 03:27:46;;;;;;;;;9.75;8.75;;;;;;;;3724803;38;20926;-62
2021/05/04 03:30:12;;;;;;;;;8.00;8.00;;;;;;;;3725101;37;18001;-64
2021/05/04 03:32:40;;;;;;;;;7.75;7.75;;;;;;;;3724966;38;17998;-62
2021/05/04 03:35:10;;;;;;;;;11.50;11.50;;;;;;;;3725115;38;20897;-64
2021/05/04 03:37:37;;;;;;;;;6.00;5.50;;;;;;;;3725082;37;21001;-63
2021/05/04 03:40:03;;;;;;;;;7.00;7.00;;;;;;;;3724327;38;20893;-63
2021/05/04 03:42:29;;;;;;;;;12.00;12.00;;;;;;;;3725012;37;20870;-63
2021/05/04 03:44:56;;;;;;;;;8.25;7.25;;;;;;;;3724848;37;21016;-64
2021/05/04 03:47:22;;;;;;;;;10.75;10.75;;;;;;;;3724430;38;20950;-64
2021/05/04 03:49:47;;;;;;;;;10.00;8.50;;;;;;;;3724807;37;20939;-63
2021/05/04 03:52:13;;;;;;;;;11.25;8.00;;;;;;;;3724828;37;17978;-64
2021/05/04 03:54:40;;;;;;;;;8.75;8.75;;;;;;;;3724944;37;17987;-63
2021/05/04 03:57:06;;;;;;;;;9.25;8.25;;;;;;;;3724835;37;17961;-65
2021/05/04 03:59:31;;;;;;;;;8.00;8.00;;;;;;;;3724740;38;20867;-63
2021/05/04 04:01:57;;;;;;;;;9.50;9.25;;;;;;;;3724771;38;17965;-65
2021/05/04 04:04:23;;;;;;;;;9.25;9.00;;;;;;;;3724949;37;20949;-64
2021/05/04 04:06:50;;;;;;;;;10.25;9.75;;;;;;;;3724758;37;17970;-66
2021/05/04 04:09:16;;;;;;;;;10.50;8.75;;;;;;;;3724442;37;17943;-64
2021/05/04 04:11:42;;;;;;;;;15.75;12.50;;;;;;;;3724943;38;20614;-64
2021/05/04 04:14:08;;;;;;;;;9.25;9.25;;;;;;;;3724710;38;17878;-66
2021/05/04 04:16:33;;;;;;;;;12.75;10.00;;;;;;;;3724911;38;20911;-64
2021/05/04 04:19:00;;;;;;;;;11.50;11.50;;;;;;;;3724970;37;17921;-66
2021/05/04 04:21:32;;;;;;;;;13.75;13.75;;;;;;;;3724975;38;17931;-64
2021/05/04 04:23:58;;;;;;;;;13.50;12.00;;;;;;;;3724758;37;20965;-68
2021/05/04 04:26:24;;;;;;;;;12.50;12.50;;;;;;;;3724749;37;20979;-65
2021/05/04 04:28:50;;;;;;;;;12.00;10.25;;;;;;;;3725006;37;17939;-64
2021/05/04 04:31:16;;;;;;;;;13.25;10.50;;;;;;;;3725234;38;20897;-64
2021/05/04 04:33:42;;;;;;;;;14.75;14.00;;;;;;;;3725407;38;17926;-64
2021/05/04 04:36:13;;;;;;;;;15.75;14.00;;;;;;;;3725349;38;17914;-64
2021/05/04 04:38:39;;;;;;;;;14.25;14.25;;;;;;;;3725432;37;17913;-64
2021/05/04 04:41:05;;;;;;;;;16.75;16.00;;;;;;;;3724796;37;20924;-64
2021/05/04 04:43:32;;;;;;;;;14.25;13.00;;;;;;;;3725609;37;17913;-64
2021/05/04 04:45:58;;;;;;;;;13.25;13.25;;;;;;;;3724771;37;17880;-64
2021/05/04 04:48:25;;;;;;;;;16.00;16.00;;;;;;;;3724696;37;20790;-63
2021/05/04 04:50:51;;;;;;;;;13.50;13.00;;;;;;;;3724381;37;17912;-64
2021/05/04 04:53:18;;;;;;;;;15.75;15.75;;;;;;;;3724261;38;20926;-65
2021/05/04 04:55:43;;;;;;;;;12.00;12.00;;;;;;;;3724421;37;17892;-64
2021/05/04 04:58:10;;;;;;;;;14.00;14.00;;;;;;;;3724596;38;20895;-65
2021/05/04 05:00:36;;;;;;;;;20.25;19.50;;;;;;;;3723905;37;17885;-64
2021/05/04 05:03:01;;;;;;;;;13.75;13.75;;;;;;;;3724369;38;20919;-66
2021/05/04 05:05:27;;;;;;;;;13.00;13.00;;;;;;;;3724254;37;17876;-65
2021/05/04 05:07:53;;;;;;;;;14.00;14.00;;;;;;;;3724809;37;17886;-65
2021/05/04 05:10:19;;;;;;;;;17.25;15.00;;;;;;;;3724399;37;17850;-64
2021/05/04 05:12:45;;;;;;;;;16.25;16.00;;;;;;;;3724745;37;17862;-66
2021/05/04 05:15:11;;;;;;;;;14.25;14.25;;;;;;;;3724245;38;17875;-63
2021/05/04 05:17:37;;;;;;;;;9.25;8.75;;;;;;;;3724733;38;20917;-62
2021/05/04 05:20:04;;;;;;;;;12.00;12.00;;;;;;;;3723842;37;20769;-67
2021/05/04 05:22:29;;;;;;;;;11.75;11.75;;;;;;;;3724531;38;20854;-64
2021/05/04 05:24:55;;;;;;;;;12.75;12.50;;;;;;;;3725242;38;20860;-67
2021/05/04 05:27:22;;;;;;;;;15.00;15.00;;;;;;;;3725055;38;17829;-64
2021/05/04 05:29:48;;;;;;;;;11.75;10.25;;;;;;;;3724825;38;17853;-66
2021/05/04 05:32:14;;;;;;;;;11.75;11.00;;;;;;;;3724164;37;20840;-65
2021/05/04 05:34:40;;;;;;;;;12.50;11.50;;;;;;;;3724365;37;20821;-63
2021/05/04 05:37:07;;;;;;;;;13.75;13.75;;;;;;;;3724589;37;17843;-67
2021/05/04 05:39:41;;;;;;;;;13.75;13.75;;;;;;;;3724348;37;20823;-68
2021/05/04 05:42:07;;;;;;;;;11.00;10.50;;;;;;;;3724169;38;20816;-66
2021/05/04 05:44:58;;;;;;;;;9.50;9.50;;;;;;;;3724969;38;20873;-68
2021/05/04 05:47:24;;;;;;;;;12.75;11.75;;;;;;;;3725075;37;17821;-66
2021/05/04 05:49:50;;;;;;;;;9.50;8.75;;;;;;;;3724886;38;20854;-63
2021/05/04 05:52:22;;;;;;;;;10.25;10.25;;;;;;;;3725223;38;17812;-66
2021/05/04 05:54:50;;;;;;;;;8.50;8.50;;;;;;;;3725349;38;17819;-64
2021/05/04 05:57:18;;;;;;;;;11.25;11.25;;;;;;;;3725417;37;20773;-65
2021/05/04 05:59:44;;;;;;;;;11.00;11.00;;;;;;;;3725477;37;20800;-62
2021/05/04 06:02:10;;;;;;;;;9.25;9.25;;;;;;;;3726678;38;20854;-62
2021/05/04 06:04:35;;;;;;;;;16.00;15.00;;;;;;;;3725512;37;17777;-64
2021/05/04 06:07:01;;;;;;;;;8.00;8.00;;;;;;;;3725192;38;17778;-63
2021/05/04 06:09:27;;;;;;;;;9.00;7.50;;;;;;;;3728094;38;17782;-63
2021/05/04 06:11:53;;;;;;;;;9.00;9.00;;;;;;;;3726525;37;17781;-64
2021/05/04 06:14:20;;;;;;;;;9.75;9.75;;;;;;;;3725234;38;17767;-63
2021/05/04 06:16:46;;;;;;;;;8.25;8.25;;;;;;;;3725096;37;17772;-63
2021/05/04 06:19:12;;;;;;;;;9.00;9.00;;;;;;;;3724437;38;20708;-64
2021/05/04 06:21:38;;;;;;;;;10.50;10.50;;;;;;;;3725107;38;17785;-66
2021/05/04 06:24:05;;;;;;;;;8.50;8.00;;;;;;;;3724885;38;17781;-64
2021/05/04 06:26:30;;;;;;;;;8.25;8.25;;;;;;;;3725122;38;17774;-65
2021/05/04 06:28:58;;;;;;;;;8.50;7.75;;;;;;;;3724949;37;20662;-63
2021/05/04 06:31:27;;;;;;;;;8.00;8.00;;;;;;;;3724315;38;17745;-63
2021/05/04 06:33:53;;;;;;;;;9.50;7.75;;;;;;;;3725114;38;20686;-65
2021/05/04 06:36:20;;;;;;;;;10.50;10.00;;;;;;;;3725231;38;20671;-64
2021/05/04 06:38:50;;;;;;;;;5.50;5.50;;;;;;;;3725142;38;20734;-64
2021/05/04 06:41:18;;;;;;;;;6.00;6.00;;;;;;;;3724920;38;20710;-66
2021/05/04 06:43:43;;;;;;;;;11.25;11.00;;;;;;;;3724847;38;20678;-64
2021/05/04 06:46:09;;;;;;;;;6.25;6.25;;;;;;;;3724406;38;20809;-63
2021/05/04 06:48:35;;;;;;;;;6.50;6.50;;;;;;;;3724931;37;17723;-62
2021/05/04 06:51:01;;;;;;;;;6.75;6.75;;;;;;;;3724955;37;17738;-64
2021/05/04 06:53:27;;;;;;;;;8.25;8.25;;;;;;;;3724958;38;17729;-64
2021/05/04 06:55:53;;;;;;;;;7.25;7.25;;;;;;;;3724913;38;17728;-64
2021/05/04 06:58:19;;;;;;;;;5.25;5.25;;;;;;;;3724889;38;17729;-64
2021/05/04 07:00:45;;;;;;;;;7.25;7.25;;;;;;;;3724868;37;20698;-65
2021/05/04 07:03:11;;;;;;;;;9.00;8.00;;;;;;;;3725246;38;17710;-63
2021/05/04 07:05:43;;;;;;;;;15.75;15.00;;;;;;;;3725195;37;20696;-64
2021/05/04 07:08:09;;;;;;;;;9.25;9.25;;;;;;;;3725329;37;17723;-64
2021/05/04 07:10:35;;;;;;;;;11.00;8.00;;;;;;;;3725081;38;20732;-65
2021/05/04 07:13:02;;;;;;;;;7.50;7.00;;;;;;;;3725384;38;17688;-64
2021/05/04 07:15:28;;;;;;;;;5.75;5.75;;;;;;;;3725082;38;17696;-64
2021/05/04 07:17:58;;;;;;;;;7.50;6.50;;;;;;;;3724926;38;20656;-63
2021/05/04 07:20:24;;;;;;;;;5.75;5.75;;;;;;;;3725190;38;17686;-63
2021/05/04 07:22:55;;;;;;;;;6.75;6.00;;;;;;;;3724893;37;20654;-64
2021/05/04 07:25:21;;;;;;;;;6.50;6.50;;;;;;;;3725146;37;17678;-63
2021/05/04 07:27:47;;;;;;;;;6.75;6.75;;;;;;;;3725066;38;20647;-63
2021/05/04 07:30:15;;;;;;;;;6.00;5.00;;;;;;;;3725138;37;17675;-64
2021/05/04 07:32:40;;;;;;;;;5.50;5.50;;;;;;;;3724936;37;20607;-62
2021/05/04 07:35:08;;;;;;;;;8.00;8.00;;;;;;;;3724973;38;20619;-64
2021/05/04 07:37:39;;;;;;;;;5.00;5.00;;;;;;;;3724991;38;17671;-64
2021/05/04 07:40:05;;;;;;;;;6.00;5.50;;;;;;;;3724826;37;20618;-64
2021/05/04 07:42:31;;;;;;;;;4.50;4.50;;;;;;;;3725061;37;20602;-65
2021/05/04 07:44:57;;;;;;;;;5.00;4.25;;;;;;;;3725062;38;20613;-64
2021/05/04 07:47:27;;;;;;;;;5.00;5.00;;;;;;;;3724809;37;17646;-63
2021/05/04 07:49:53;;;;;;;;;4.25;4.25;;;;;;;;3724891;37;20610;-63
2021/05/04 07:52:19;;;;;;;;;4.50;4.50;;;;;;;;3724944;37;20568;-63
2021/05/04 07:54:44;;;;;;;;;5.75;5.75;;;;;;;;3725051;37;17631;-63
2021/05/04 07:57:11;;;;;;;;;14.00;12.75;;;;;;;;3725222;37;18720;-63
2021/05/04 07:59:40;;;;;;;;;5.50;5.50;;;;;;;;3725092;38;17659;-63
2021/05/04 08:02:06;;;;;;;;;5.00;5.00;;;;;;;;3725118;37;20581;-65
2021/05/04 08:04:31;;;;;;;;;4.00;4.00;;;;;;;;3724840;38;21591;-63
2021/05/04 08:07:00;;;;;;;;;5.00;5.00;;;;;;;;3725200;38;17633;-63
2021/05/04 08:09:27;;;;;;;;;5.00;5.00;;;;;;;;3725001;37;17635;-63
2021/05/04 08:11:53;;;;;;;;;5.00;5.00;;;;;;;;3724630;37;21593;-63
2021/05/04 08:14:19;;;;;;;;;5.00;5.00;;;;;;;;3725240;38;21607;-62
2021/05/04 08:16:45;;;;;;;;;5.00;4.75;;;;;;;;3724737;37;18627;-63
2021/05/04 08:19:12;;;;;;;;;7.25;7.25;;;;;;;;3724495;37;21589;-63
2021/05/04 08:21:39;;;;;;;;;6.00;6.00;;;;;;;;3724397;37;21666;-63
2021/05/04 08:24:06;;;;;;;;;5.25;5.25;;;;;;;;3724501;37;21584;-63
2021/05/04 08:26:32;;;;;;;;;6.00;5.00;;;;;;;;3724959;37;21549;-63
2021/05/04 08:28:58;;;;;;;;;5.25;5.00;;;;;;;;3724981;37;21568;-63
2021/05/04 08:31:24;;;;;;;;;6.25;6.00;;;;;;;;3724874;37;21568;-63
2021/05/04 08:33:53;;;;;;;;;5.00;5.00;;;;;;;;3724695;37;21546;-64
2021/05/04 08:36:22;;;;;;;;;6.00;6.00;;;;;;;;3724893;37;18592;-63
2021/05/04 08:38:48;;;;;;;;;4.75;4.00;;;;;;;;3724987;37;21567;-63
2021/05/04 08:41:15;;;;;;;;;3.50;3.50;;;;;;;;3724907;38;21573;-63
2021/05/04 08:43:45;;;;;;;;;7.25;7.25;;;;;;;;3721933;38;18602;-65
2021/05/04 08:46:11;;;;;;;;;8.50;8.00;;;;;;;;3723163;38;21520;-64
2021/05/04 08:48:38;;;;;;;;;6.00;6.00;;;;;;;;3724997;37;21531;-65
2021/05/04 08:51:03;;;;;;;;;8.00;7.00;;;;;;;;3727439;37;18597;-64
2021/05/04 08:53:29;;;;;;;;;6.25;6.00;;;;;;;;3725126;37;21534;-64
2021/05/04 08:55:55;;;;;;;;;6.00;6.00;;;;;;;;3724892;37;18567;-63
2021/05/04 08:58:21;;;;;;;;;5.00;5.00;;;;;;;;3725085;37;18585;-63
2021/05/04 09:00:47;;;;;;;;;4.00;4.00;;;;;;;;3725107;37;18580;-63
2021/05/04 09:03:23;;;;;;;;;5.25;5.00;;;;;;;;3724839;37;21518;-64
2021/05/04 09:06:03;;;;;;;;;7.00;7.00;;;;;;;;3724929;37;21490;-63
2021/05/04 09:08:41;;;;;;;;;6.25;6.25;;;;;;;;3724822;38;21548;-63
2021/05/04 09:14:32;;;;;;;;;6.00;5.75;;;;;;;;3724934;37;21335;-65
2021/05/04 09:17:31;;;;;;;;;5.50;5.50;;;;;;;;3724837;37;21504;-65
2021/05/04 09:20:29;;;;;;;;;7.25;7.25;;;;;;;;3724420;37;21520;-64
2021/05/04 09:23:08;;;;;;;;;8.75;8.75;;;;;;;;3724750;37;21482;-64
2021/05/04 09:25:37;;;;;;;;;7.00;6.00;;;;;;;;3724919;37;21510;-64
2021/05/04 09:28:11;;;;;;;;;7.00;6.00;;;;;;;;3724780;37;21478;-64
2021/05/04 09:30:37;;;;;;;;;7.00;7.00;;;;;;;;3724992;37;21471;-64
2021/05/04 09:33:06;;;;;;;;;6.50;6.50;;;;;;;;3724840;37;21471;-65
2021/05/04 09:35:33;;;;;;;;;8.00;8.00;;;;;;;;3724936;37;21489;-63
2021/05/04 09:38:11;;;;;;;;;8.75;8.00;;;;;;;;3724703;37;21413;-63
2021/05/04 09:40:39;;;;;;;;;8.50;8.50;;;;;;;;3724965;37;21479;-64
2021/05/04 09:43:12;;;;;;;;;7.00;7.00;;;;;;;;3724878;38;21442;-64
2021/05/04 09:45:40;;;;;;;;;5.00;5.00;;;;;;;;3725120;37;21507;-63
2021/05/04 09:48:12;;;;;;;;;5.00;5.00;;;;;;;;3725041;38;21467;-63
2021/05/04 09:50:49;;;;;;;;;5.25;5.25;;;;;;;;3725075;37;21475;-63
2021/05/04 09:53:20;;;;;;;;;4.25;4.25;;;;;;;;3724871;38;21459;-63
2021/05/04 09:55:59;;;;;;;;;6.00;6.00;;;;;;;;3724904;37;21491;-63
2021/05/04 09:58:36;;;;;;;;;6.25;5.50;;;;;;;;3724971;37;21424;-63
2021/05/04 10:01:03;;;;;;;;;5.75;5.75;;;;;;;;3725143;37;21450;-62
2021/05/04 10:03:29;;;;;;;;;5.75;5.75;;;;;;;;3725124;37;21482;-64
2021/05/04 10:05:57;;;;;;;;;4.50;4.50;;;;;;;;3725121;37;21440;-63
2021/05/04 10:08:24;;;;;;;;;6.00;6.00;;;;;;;;3725237;37;18486;-63
2021/05/04 10:10:50;;;;;;;;;2.00;2.00;;;;;;;;3724540;37;21251;-64
2021/05/04 10:13:18;;;;;;;;;6.75;6.00;;;;;;;;3724985;37;21447;-63
2021/05/04 10:15:48;;;;;;;;;7.50;7.50;;;;;;;;3724987;38;18474;-63
2021/05/04 10:18:15;;;;;;;;;5.00;5.00;;;;;;;;3724853;38;21428;-63
2021/05/04 10:20:42;;;;;;;;;5.50;5.50;;;;;;;;3725027;37;21427;-63
2021/05/04 10:23:11;;;;;;;;;5.00;5.00;;;;;;;;3724787;38;21443;-63
2021/05/04 10:25:37;;;;;;;;;6.00;5.00;;;;;;;;3724867;38;21436;-62
2021/05/04 10:28:03;;;;;;;;;5.00;4.00;;;;;;;;3724974;37;21386;-63
2021/05/04 10:30:30;;;;;;;;;5.00;5.00;;;;;;;;3725002;37;21456;-63
2021/05/04 10:35:49;;;;;;;;;4.25;4.25;;;;;;;;3724405;38;21424;-63
2021/05/04 10:38:17;;;;;;;;;5.00;5.00;;;;;;;;3725019;38;21405;-62
2021/05/04 10:40:47;;;;;;;;;5.25;4.25;;;;;;;;3724935;37;21391;-63
2021/05/04 10:43:42;;;;;;;;;5.00;5.00;;;;;;;;3725312;38;21397;-63
2021/05/04 10:46:11;;;;;;;;;5.75;5.75;;;;;;;;3724889;38;21412;-63
2021/05/04 10:48:48;;;;;;;;;6.00;5.75;;;;;;;;3725206;37;21386;-63
2021/05/04 10:51:19;;;;;;;;;5.00;4.00;;;;;;;;3725144;37;21097;-63
2021/05/04 10:54:13;;;;;;;;;3.50;3.50;;;;;;;;3725077;38;21345;-63
2021/05/04 10:56:43;;;;;;;;;4.75;4.75;;;;;;;;3724922;37;21424;-63
2021/05/04 10:59:28;;;;;;;;;5.00;5.00;;;;;;;;3724997;38;21427;-62
2021/05/04 11:02:30;;;;;;;;;5.50;5.50;;;;;;;;3724988;38;21376;-64
2021/05/04 11:04:57;;;;;;;;;6.50;6.00;;;;;;;;3725053;37;21410;-62
2021/05/04 11:07:46;;;;;;;;;8.75;8.00;;;;;;;;3725120;38;21374;-64
2021/05/04 11:10:12;;;;;;;;;7.00;6.00;;;;;;;;3724922;37;21410;-66
2021/05/04 11:12:38;;;;;;;;;4.00;4.00;;;;;;;;3724926;38;21366;-64
2021/05/04 11:15:26;;;;;;;;;9.25;9.25;;;;;;;;3725005;38;21328;-63
2021/05/04 11:17:52;;;;;;;;;6.75;6.75;;;;;;;;3725059;37;21354;-63
2021/05/04 11:20:37;;;;;;;;;6.00;6.00;;;;;;;;3724970;38;21277;-63
2021/05/04 11:23:04;;;;;;;;;4.00;3.75;;;;;;;;3724754;38;21358;-64
2021/05/04 11:25:33;;;;;;;;;7.00;7.00;;;;;;;;3725028;38;21354;-64
2021/05/04 11:27:59;;;;;;;;;4.75;4.75;;;;;;;;3725158;37;21354;-64
2021/05/04 11:30:35;;;;;;;;;6.00;6.00;;;;;;;;3727352;38;21307;-64
2021/05/04 11:33:20;;;;;;;;;9.75;9.75;;;;;;;;3725671;37;18366;-64
2021/05/04 11:35:46;;;;;;;;;6.00;6.00;;;;;;;;3724847;38;21343;-64
2021/05/04 11:38:18;;;;;;;;;4.75;4.75;;;;;;;;3724964;38;21335;-63
2021/05/04 11:40:44;;;;;;;;;5.50;5.50;;;;;;;;3725071;37;18358;-63
2021/05/04 11:43:14;;;;;;;;;7.25;7.25;;;;;;;;3724492;38;21323;-64
2021/05/04 11:45:40;;;;;;;;;5.00;5.00;;;;;;;;3725497;37;21291;-62
2021/05/04 11:48:15;;;;;;;;;5.00;5.00;;;;;;;;3724824;38;21306;-63
2021/05/04 11:50:50;;;;;;;;;4.50;4.50;;;;;;;;3724840;38;21309;-63
2021/05/04 11:53:17;;;;;;;;;5.50;5.50;;;;;;;;3727377;38;21370;-64
2021/05/04 11:55:44;;;;;;;;;5.00;5.00;;;;;;;;3724731;38;21310;-65
2021/05/04 11:58:15;;;;;;;;;6.00;6.00;;;;;;;;3724861;38;21307;-65
2021/05/04 12:00:41;;;;;;;;;7.00;7.00;;;;;;;;3724893;38;21343;-63
2021/05/04 12:03:11;;;;;;;;;7.50;7.00;;;;;;;;3724905;37;21310;-62
2021/05/04 12:05:38;;;;;;;;;8.00;7.50;;;;;;;;3724896;37;18343;-63
2021/05/04 12:08:05;;;;;;;;;6.00;6.00;;;;;;;;3725065;37;21287;-63
2021/05/04 12:10:32;;;;;;;;;6.00;6.00;;;;;;;;3724840;38;21319;-63
2021/05/04 12:13:02;;;;;;;;;8.25;8.25;;;;;;;;3725035;37;21273;-62
2021/05/04 12:15:29;;;;;;;;;5.00;5.00;;;;;;;;3724991;38;21371;-62
2021/05/04 12:17:55;;;;;;;;;7.00;7.00;;;;;;;;3724899;37;21303;-62
2021/05/04 12:20:22;;;;;;;;;6.00;6.00;;;;;;;;3725104;37;21250;-62
2021/05/04 12:22:58;;;;;;;;;6.00;6.00;;;;;;;;3724990;38;21303;-62
2021/05/04 12:26:04;;;;;;;;;5.00;5.00;;;;;;;;3725034;38;21253;-62
2021/05/04 12:28:36;;;;;;;;;5.00;5.00;;;;;;;;3724990;37;21314;-63
2021/05/04 12:31:06;;;;;;;;;5.00;5.00;;;;;;;;3725053;38;21240;-63
2021/05/04 12:33:33;;;;;;;;;5.00;5.00;;;;;;;;3725030;38;21256;-62
2021/05/04 12:36:08;;;;;;;;;5.00;5.00;;;;;;;;3725021;38;21262;-63
2021/05/04 12:38:49;;;;;;;;;6.25;5.25;;;;;;;;3724994;37;21249;-62
2021/05/04 12:41:23;;;;;;;;;4.00;4.00;;;;;;;;3725217;38;21242;-62
2021/05/04 12:44:23;;;;;;;;;5.00;4.25;;;;;;;;3724961;38;21229;-62
2021/05/04 12:46:50;;;;;;;;;4.00;4.00;;;;;;;;3724818;37;21258;-64
2021/05/04 12:49:16;;;;;;;;;6.50;5.50;;;;;;;;3724884;37;21283;-65
2021/05/04 12:51:46;;;;;;;;;3.00;3.00;;;;;;;;3724986;37;21229;-63
2021/05/04 12:54:16;;;;;;;;;5.75;5.25;;;;;;;;3724997;37;21252;-63
2021/05/04 12:56:43;;;;;;;;;4.25;4.25;;;;;;;;3724936;37;21406;-62
2021/05/04 14:26:36;;;;;;;;;5.00;5.00;;;;;;;;3724883;38;21142;-62
2021/05/04 14:29:19;;;;;;;;;;;;;;;;;;;;;
2021/05/04 14:31:45;;;;;;;;;5.00;4.25;;;;;;;;3724821;37;21101;-63
2021/05/04 14:34:14;;;;;;;;;4.50;4.50;;;;;;;;3724717;37;21112;-63
2021/05/04 14:39:48;;;;;;;;;4.75;4.75;;;;;;;;3724928;37;21284;-62
2021/05/04 14:48:03;;;;;;;;;5.00;5.00;;;;;;;;3724970;38;21074;-62
2021/05/04 14:54:04;;;;;;;;;;;;;;;;;;;;;
2021/05/04 14:59:16;;;;;;;;;4.25;4.25;;;;;;;;3724904;37;21093;-64
2021/05/04 15:02:00;;;;;;;;;5.00;4.75;;;;;;;;3724915;37;21114;-62
2021/05/04 15:04:26;;;;;;;;;3.00;3.00;;;;;;;;3724884;38;21099;-65
2021/05/04 15:06:52;;;;;;;;;4.50;4.50;;;;;;;;3724879;38;21067;-63
2021/05/04 15:09:19;;;;;;;;;4.25;4.00;;;;;;;;3724712;37;21081;-67
2021/05/04 15:11:52;;;;;;;;;5.75;5.75;;;;;;;;3725103;37;18061;-61
2021/05/04 15:14:38;;;;;;;;;5.00;5.00;;;;;;;;3724947;38;21077;-62
2021/05/04 15:17:39;;;;;;;;;6.75;6.00;;;;;;;;3724838;37;21060;-63
2021/05/04 15:22:43;;;;;;;;;5.00;4.25;;;;;;;;3724940;38;21010;-62
2021/05/04 15:25:10;;;;;;;;;6.25;6.25;;;;;;;;3724883;37;21071;-61
2021/05/04 15:27:35;;;;;;;;;4.25;4.25;;;;;;;;3724446;37;18040;-61
2021/05/04 15:30:02;;;;;;;;;4.00;4.00;;;;;;;;3724555;37;21054;-62
2021/05/04 15:32:31;;;;;;;;;4.50;4.25;;;;;;;;3724928;38;18036;-61
2021/05/04 15:35:00;;;;;;;;;5.00;5.00;;;;;;;;3724269;37;21030;-61
2021/05/04 15:37:27;;;;;;;;;4.75;4.50;;;;;;;;3724227;38;21073;-61
2021/05/04 15:39:59;;;;;;;;;5.00;5.00;;;;;;;;3724395;38;21019;-60
2021/05/04 15:42:26;;;;;;;;;5.00;4.25;;;;;;;;3724385;37;21032;-61
2021/05/04 15:44:57;;;;;;;;;5.00;5.00;;;;;;;;3724426;37;20979;-60
2021/05/04 15:47:43;;;;;;;;;5.00;5.00;;;;;;;;3724576;37;21052;-62
2021/05/04 15:53:21;;;;;;;;;5.00;5.00;;;;;;;;3724513;37;20995;-63
2021/05/04 16:01:56;;;;;;;;;6.50;6.50;;;;;;;;3724550;37;21019;-62
2021/05/04 16:07:08;;;;;;;;;7.00;7.00;;;;;;;;3724893;37;20982;-63
2021/05/04 16:09:36;;;;;;;;;6.25;6.25;;;;;;;;3724982;38;20996;-62
2021/05/04 16:12:09;;;;;;;;;6.50;6.50;;;;;;;;3724774;38;21005;-63
2021/05/04 16:14:36;;;;;;;;;5.00;5.00;;;;;;;;3724989;37;21009;-62
2021/05/04 16:17:02;;;;;;;;;5.50;5.50;;;;;;;;3724824;37;20802;-62
2021/05/04 16:19:31;;;;;;;;;7.50;7.25;;;;;;;;3725502;38;19910;-63
2021/05/04 16:22:04;;;;;;;;;5.75;5.75;;;;;;;;3725478;37;17799;-63
2021/05/04 16:27:30;;;;;;;;;7.00;6.25;;;;;;;;3725466;37;19891;-62
2021/05/04 16:30:09;;;;;;;;;7.00;6.00;;;;;;;;3725589;38;19932;-63
2021/05/04 16:32:36;;;;;;;;;7.00;5.75;;;;;;;;3725583;37;19898;-61
2021/05/04 16:35:04;;;;;;;;;5.50;5.50;;;;;;;;3725439;38;19873;-61
2021/05/04 16:37:30;;;;;;;;;6.25;6.25;;;;;;;;3725155;38;19889;-63
2021/05/04 16:39:56;;;;;;;;;9.25;8.75;;;;;;;;3725035;37;19899;-62
2021/05/04 16:42:23;;;;;;;;;4.75;4.25;;;;;;;;3725571;37;19926;-65
2021/05/04 16:44:49;;;;;;;;;7.00;7.00;;;;;;;;3725511;37;19869;-68
2021/05/04 16:47:18;;;;;;;;;7.00;7.00;;;;;;;;3725176;37;19888;-64
2021/05/04 16:49:44;;;;;;;;;33.00;30.00;;;;;;;;3727797;37;19864;-64
2021/05/04 16:52:14;;;;;;;;;7.25;7.25;;;;;;;;3725868;37;19928;-67
2021/05/04 16:54:40;;;;;;;;;6.50;6.00;;;;;;;;3725047;38;19844;-64
2021/05/04 16:57:05;;;;;;;;;5.75;5.75;;;;;;;;3725179;37;19843;-67